Airfield :
LOGIN :

Register | Disclaimer

   EN    FR    IT 

 










Legend :    VFR   Marginal VFR   IFR   Intensive IFR   Very Intensive IFR
Visi :
Ceiling :
>= 8 km
>= 3000ft
5 to 8 km
1000 to 3000 ft
1500m to 5 km
500 to 1000 ft
800 to 1500m
200 to 500 ft
< 800m
< 200 ft
Symbols :   Thunderstorms  Fog  Heavy snow  Heavy precipitations  Wind > 20 kt
SIGMETs :     Misc.  Thunderstorms  Icing  Turbulence  Mountain Waves  Volcanic Ashes







- Airport Elevation : 55 ft
- IATA code : DSA
- Download approach charts


EGCN - Robin Hood Doncaster Sheffield

CURRENT METAR :
  • 200150Z 21013KT 9999 -RA NSC 13/09 Q1011

EXPIRED METARs :
  • 200120Z 21011KT CAVOK 13/08 Q1011
  • 200050Z 21012KT CAVOK 14/09 Q1011
  • 200020Z 20014KT CAVOK 14/08 Q1011
  • 192350Z 21011KT CAVOK 13/08 Q1011
  • 192320Z 21013KT CAVOK 13/07 Q1012

TAF TAF EGCN
Valid from the 20 at 00:00 until the 21 at 00:00 UTC


192300Z 2000/2024 21010KT 9999 FEW030
TEMPO 2000/2006 8000 -RA
PROB30
TEMPO 2002/2012 BKN012
BECMG 2006/2009 7000 -RA
BECMG 2009/2012 VRB04KT
BECMG 2012/2015 18010KT
TEMPO 2012/2016 4000 RA BKN012
PROB30
TEMPO 2012/2016 +RA BKN006
BECMG 2015/2018 19020G32KT 9999 NSW
No reported NOTAMs for that airfield.
2 SIGMETs reported for the London FIR (EGTT) :
 
Severe turbulence
EGTT SIGMET 02 VALID 200100/200500 EGRR
EGTT LONDON FIR SEV TURB FCST WI N5500 E00000 - N5418 W00223 - N5500 W00530 - N5500 E00000 SFC/FL060 MOV N 05KT WKN=
Severe mountain waves
EGTT SIGMET 01 VALID 200100/200500 EGRR
EGTT LONDON FIR SEV MTW FCST WI N5500 E00020 - N5416 E00049 - N5314 W00250 - N5500 W00530 - N5500 E00020 FL030/250 MOV N 10KT WKN=



MET'MAP, your aeronautical weather chart ! - Copyright ORBIFLY December 2007 - Disclaimer

ORBIFLY MET'MAP TEAM :

Programming & Development : Alexandra Zaïnal
Concept & Development : Baudouin d'Aumeries
Co-Development & Prog : Marc-Olivier Méhu
Technical & hardware support : Manuel Goepfert

Contact : metmap@orbifly.com




SOURCES & CREDITS :

   NOAA